createdAt,value
2022-10-11T00:00:56.396Z,0.75
2022-10-11T00:02:54.297Z,0.98
2022-10-11T00:04:52.397Z,1.42
2022-10-11T00:06:51.640Z,1.30
2022-10-11T00:08:49.544Z,0.98
2022-10-11T00:10:47.412Z,0.93
2022-10-11T00:12:46.232Z,1.10
2022-10-11T00:14:44.258Z,1.00
2022-10-11T00:16:44.483Z,0.90
2022-10-11T00:18:42.754Z,1.73
2022-10-11T00:20:40.612Z,1.13
2022-10-11T00:22:40.265Z,1.35
2022-10-11T00:24:38.244Z,1.48
2022-10-11T00:26:36.175Z,0.95
2022-10-11T00:28:34.663Z,2.45
2022-10-11T00:30:32.949Z,1.20
2022-10-11T00:32:30.934Z,1.70
2022-10-11T00:34:28.824Z,1.45
2022-10-11T00:36:27.193Z,1.10
2022-10-11T00:38:26.395Z,1.30
2022-10-11T00:40:24.469Z,1.55
2022-10-11T00:42:22.482Z,2.50
2022-10-11T00:44:22.119Z,1.48
2022-10-11T00:46:28.049Z,1.30
2022-10-11T00:48:28.313Z,1.40
2022-10-11T00:50:26.976Z,1.17
2022-10-11T00:52:29.141Z,2.13
2022-10-11T00:54:29.855Z,1.30
2022-10-11T00:56:29.388Z,1.60
2022-10-11T00:58:27.693Z,1.58
2022-10-11T01:00:25.687Z,1.50
2022-10-11T01:02:24.303Z,1.58
2022-10-11T01:04:22.132Z,1.58
2022-10-11T01:06:20.212Z,1.50
2022-10-11T01:08:18.031Z,1.85
2022-10-11T01:10:17.377Z,2.17
2022-10-11T01:12:17.049Z,1.50
2022-10-11T01:14:33.439Z,1.80
2022-10-11T01:16:33.197Z,1.42
2022-10-11T01:18:33.545Z,1.38
2022-10-11T01:20:37.953Z,1.42
2022-10-11T01:24:51.923Z,2.25
2022-10-11T01:27:04.739Z,1.77
2022-10-11T01:29:10.354Z,1.73
2022-10-11T01:31:15.691Z,2.55
2022-10-11T01:33:27.101Z,1.63
2022-10-11T01:35:27.421Z,1.98
2022-10-11T01:37:27.294Z,2.38
2022-10-11T01:39:27.156Z,1.63
2022-10-11T01:41:26.653Z,2.25
2022-10-11T01:43:25.113Z,2.30
2022-10-11T01:45:23.024Z,3.30
2022-10-11T01:47:22.729Z,2.13
2022-10-11T01:49:20.733Z,1.95
2022-10-11T01:51:19.052Z,2.35
2022-10-11T01:53:27.398Z,2.22
2022-10-11T01:55:30.940Z,2.40
2022-10-11T01:57:36.024Z,3.40
2022-10-11T01:59:41.207Z,2.67
2022-10-11T02:01:42.559Z,1.92
2022-10-11T02:03:45.031Z,2.25
2022-10-11T02:05:47.088Z,1.90
2022-10-11T02:07:46.983Z,2.72
2022-10-11T02:09:47.292Z,2.53
2022-10-11T02:11:45.386Z,1.75
2022-10-11T02:13:46.329Z,1.73
2022-10-11T02:15:45.758Z,3.80
2022-10-11T02:17:48.875Z,2.03
2022-10-11T02:19:50.607Z,2.42
2022-10-11T02:21:52.413Z,2.65
2022-10-11T02:23:52.443Z,2.42
2022-10-11T02:25:50.875Z,2.78
2022-10-11T02:27:49.262Z,2.90
2022-10-11T02:29:47.698Z,3.22
2022-10-11T02:31:46.383Z,3.35
2022-10-11T02:33:46.294Z,2.22
2022-10-11T02:35:47.229Z,1.80
2022-10-11T02:37:48.121Z,3.08
2022-10-11T02:39:48.628Z,3.30
2022-10-11T02:41:47.303Z,2.58
2022-10-11T02:43:47.999Z,2.75
2022-10-11T02:45:48.565Z,2.83
2022-10-11T02:47:46.963Z,3.03
2022-10-11T02:49:44.874Z,3.50
2022-10-11T02:51:44.351Z,2.97
2022-10-11T02:53:42.183Z,2.53
2022-10-11T02:55:40.513Z,1.95
2022-10-11T02:57:38.423Z,3.03
2022-10-11T02:59:36.480Z,3.05
2022-10-11T03:01:34.469Z,2.00
2022-10-11T03:03:32.502Z,3.97
2022-10-11T03:05:30.525Z,3.22
2022-10-11T03:07:29.889Z,2.33
2022-10-11T03:09:28.029Z,2.55
2022-10-11T03:11:26.115Z,2.55
2022-10-11T03:13:24.054Z,2.75
2022-10-11T03:15:21.938Z,3.10
2022-10-11T03:17:35.633Z,2.40
2022-10-11T03:19:33.942Z,1.73
2022-10-11T03:21:31.893Z,2.72
2022-10-11T03:23:31.146Z,2.17
2022-10-11T03:25:29.540Z,2.60
2022-10-11T03:27:27.597Z,3.42
2022-10-11T03:29:25.611Z,2.45
2022-10-11T03:31:23.770Z,3.00
2022-10-11T03:33:21.800Z,3.20
2022-10-11T03:35:19.708Z,2.72
2022-10-11T03:37:18.388Z,2.88
2022-10-11T03:39:17.614Z,3.45
2022-10-11T03:41:15.529Z,3.50
2022-10-11T03:43:13.690Z,2.65
2022-10-11T03:45:12.019Z,4.55
2022-10-11T03:47:10.317Z,2.80
2022-10-11T03:49:08.167Z,2.63
2022-10-11T03:51:06.283Z,3.13
2022-10-11T03:53:04.319Z,3.42
2022-10-11T03:55:03.650Z,3.95
2022-10-11T03:57:01.650Z,2.40
2022-10-11T03:58:59.520Z,2.60
2022-10-11T04:00:57.720Z,2.40
2022-10-11T04:02:55.583Z,3.63
2022-10-11T04:04:53.579Z,3.65
2022-10-11T04:06:51.444Z,4.07
2022-10-11T04:08:49.399Z,3.13
2022-10-11T04:10:49.454Z,5.20
2022-10-11T04:12:47.484Z,3.20
2022-10-11T04:14:45.505Z,4.18
2022-10-11T04:16:43.500Z,2.85
2022-10-11T04:18:41.442Z,5.15
2022-10-11T04:20:39.363Z,3.67
2022-10-11T04:22:38.569Z,2.90
2022-10-11T04:24:36.733Z,3.38
2022-10-11T04:26:36.021Z,3.97
2022-10-11T04:28:34.053Z,2.83
2022-10-11T04:30:32.105Z,3.45
2022-10-11T04:32:30.085Z,3.75
2022-10-11T04:34:28.047Z,3.40
2022-10-11T04:36:25.963Z,3.90
2022-10-11T04:38:24.259Z,2.83
2022-10-11T04:40:22.153Z,5.40
2022-10-11T04:42:21.591Z,7.32
2022-10-11T04:44:19.381Z,4.63
2022-10-11T04:46:17.311Z,11.82
2022-10-11T04:48:15.538Z,8.95
2022-10-11T04:50:13.424Z,5.40
2022-10-11T04:52:11.440Z,5.60
2022-10-11T04:54:09.368Z,4.72
2022-10-11T04:56:09.140Z,4.72
2022-10-11T04:58:09.118Z,3.72
2022-10-11T05:00:07.935Z,3.38
2022-10-11T05:02:05.988Z,4.82
2022-10-11T05:04:03.926Z,3.38
2022-10-11T05:06:05.409Z,3.53
2022-10-11T05:08:03.772Z,3.55
2022-10-11T05:10:01.647Z,3.67
2022-10-11T05:11:59.636Z,3.58
2022-10-11T05:13:58.898Z,4.72
2022-10-11T05:15:56.779Z,5.70
2022-10-11T05:17:54.701Z,4.13
2022-10-11T05:19:53.029Z,3.17
2022-10-11T05:21:50.862Z,3.83
2022-10-11T05:23:49.186Z,4.22
2022-10-11T05:25:47.239Z,3.08
2022-10-11T05:27:45.609Z,3.40
2022-10-11T05:29:44.960Z,3.63
2022-10-11T05:31:43.305Z,3.28
2022-10-11T05:33:41.382Z,3.80
2022-10-11T05:35:39.459Z,2.65
2022-10-11T05:37:37.430Z,3.95
2022-10-11T05:39:35.250Z,4.50
2022-10-11T05:41:33.034Z,3.40
2022-10-11T05:43:31.218Z,3.35
2022-10-11T05:45:30.665Z,2.88
2022-10-11T05:47:28.714Z,4.15
2022-10-11T05:49:26.799Z,4.70
2022-10-11T05:51:24.702Z,3.70
2022-10-11T05:53:22.656Z,3.33
2022-10-11T05:55:20.593Z,3.88
2022-10-11T05:57:18.607Z,3.50
2022-10-11T05:59:16.606Z,4.40
2022-10-11T06:01:19.982Z,3.38
2022-10-11T06:03:18.087Z,4.82
2022-10-11T06:05:16.387Z,2.83
2022-10-11T06:07:14.274Z,3.97
2022-10-11T06:09:12.781Z,3.35
2022-10-11T06:11:12.218Z,3.38
2022-10-11T06:13:10.759Z,3.58
2022-10-11T06:15:10.946Z,2.83
2022-10-11T06:17:10.125Z,3.42
2022-10-11T06:19:08.141Z,3.65
2022-10-11T06:21:06.400Z,2.70
2022-10-11T06:23:04.397Z,10.32
2022-10-11T06:25:02.411Z,5.93
2022-10-11T06:27:00.480Z,7.63
2022-10-11T06:28:58.892Z,4.25
2022-10-11T06:30:57.072Z,4.30
2022-10-11T06:32:59.039Z,2.30
2022-10-11T06:34:59.173Z,2.65
2022-10-11T06:36:57.155Z,3.25
2022-10-11T06:38:56.068Z,3.83
2022-10-11T06:40:54.026Z,3.35
2022-10-11T06:42:51.983Z,2.95
2022-10-11T06:44:50.049Z,2.22
2022-10-11T06:46:47.975Z,3.40
2022-10-11T06:48:47.899Z,2.50
2022-10-11T06:50:59.637Z,2.13
2022-10-11T06:52:58.511Z,3.47
2022-10-11T06:54:56.296Z,3.08
2022-10-11T06:56:54.397Z,1.30
2022-10-11T06:58:52.400Z,5.82
2022-10-11T07:00:50.352Z,8.75
2022-10-11T07:02:49.099Z,7.07
2022-10-11T07:04:48.505Z,3.20
2022-10-11T07:06:46.423Z,2.55
2022-10-11T07:08:44.420Z,4.15
2022-10-11T07:10:42.347Z,3.08
2022-10-11T07:12:40.328Z,3.03
2022-10-11T07:14:38.338Z,3.45
2022-10-11T07:16:37.289Z,2.67
2022-10-11T07:18:35.409Z,4.85
2022-10-11T07:20:34.746Z,2.33
2022-10-11T07:22:32.644Z,2.03
2022-10-11T07:24:30.706Z,2.38
2022-10-11T07:26:30.522Z,1.45
2022-10-11T07:28:32.532Z,2.38
2022-10-11T07:30:30.641Z,2.25
2022-10-11T07:32:28.517Z,2.22
2022-10-11T07:34:26.566Z,1.80
2022-10-11T07:36:26.569Z,1.88
2022-10-11T07:38:24.532Z,3.25
2022-10-11T07:40:22.533Z,2.90
2022-10-11T07:42:22.131Z,2.05
2022-10-11T07:44:20.100Z,6.15
2022-10-11T07:46:18.385Z,3.22
2022-10-11T07:48:16.428Z,9.40
2022-10-11T07:50:14.431Z,3.40
2022-10-11T07:52:13.813Z,2.65
2022-10-11T07:54:11.894Z,9.63
2022-10-11T07:56:09.950Z,6.23
2022-10-11T07:58:08.152Z,7.07
2022-10-11T08:00:07.094Z,8.63
2022-10-11T08:02:10.705Z,5.60
2022-10-11T08:04:08.782Z,15.57
2022-10-11T08:06:08.454Z,3.05
2022-10-11T08:08:08.937Z,4.23
2022-10-11T08:10:08.268Z,6.53
2022-10-11T08:12:06.421Z,6.90
2022-10-11T08:14:08.798Z,2.60
2022-10-11T08:16:10.892Z,2.53
2022-10-11T08:18:09.113Z,2.43
2022-10-11T08:20:07.593Z,2.13
2022-10-11T08:22:05.510Z,1.57
2022-10-11T08:24:05.975Z,1.20
2022-10-11T08:26:04.713Z,2.85
2022-10-11T08:28:03.447Z,2.97
2022-10-11T08:30:02.674Z,2.20
2022-10-11T08:32:00.818Z,2.08
2022-10-11T08:33:58.866Z,2.63
2022-10-11T08:35:57.413Z,2.00
2022-10-11T08:37:55.379Z,1.73
2022-10-11T08:39:54.620Z,1.83
2022-10-11T08:41:54.338Z,2.77
2022-10-11T08:43:56.536Z,2.20
2022-10-11T08:45:55.674Z,2.17
2022-10-11T08:48:00.311Z,1.85
2022-10-11T08:49:59.439Z,2.22
2022-10-11T08:52:04.541Z,1.98
2022-10-11T08:54:07.842Z,3.53
2022-10-11T08:56:08.354Z,2.88
2022-10-11T08:58:07.437Z,1.67
2022-10-11T09:00:06.476Z,2.33
2022-10-11T09:02:06.212Z,1.60
2022-10-11T09:04:06.210Z,2.53
2022-10-11T09:06:09.969Z,1.77
2022-10-11T09:08:11.710Z,2.10
2022-10-11T09:10:27.756Z,1.80
2022-10-11T09:12:34.287Z,2.27
2022-10-11T09:14:48.887Z,3.57
2022-10-11T09:16:53.536Z,1.63
2022-10-11T09:18:58.865Z,1.90
2022-10-11T09:21:02.891Z,1.13
2022-10-11T09:25:04.759Z,1.73
2022-10-11T09:27:06.817Z,2.08
2022-10-11T09:29:07.991Z,2.30
2022-10-11T09:31:10.690Z,2.10
2022-10-11T09:33:13.465Z,2.43
2022-10-11T09:35:12.507Z,1.10
2022-10-11T09:37:15.240Z,2.50
2022-10-11T09:39:19.709Z,1.63
2022-10-11T09:41:20.487Z,2.00
2022-10-11T09:43:18.503Z,2.07
2022-10-11T09:45:18.945Z,2.20
2022-10-11T09:47:18.421Z,2.20
2022-10-11T09:49:17.484Z,1.97
2022-10-11T09:51:18.253Z,6.37
2022-10-11T09:53:16.116Z,1.83
2022-10-11T09:55:30.156Z,2.43
2022-10-11T09:57:28.908Z,2.38
2022-10-11T09:59:27.915Z,1.97
2022-10-11T10:01:28.268Z,2.43
2022-10-11T10:03:29.061Z,1.53
2022-10-11T10:05:27.391Z,2.07
2022-10-11T10:07:25.382Z,1.87
2022-10-11T10:09:26.686Z,1.83
2022-10-11T10:11:24.554Z,1.73
2022-10-11T10:13:23.441Z,2.30
2022-10-11T10:15:21.242Z,1.27
2022-10-11T10:17:20.684Z,1.57
2022-10-11T10:19:21.431Z,1.20
2022-10-11T10:21:25.116Z,1.93
2022-10-11T10:23:24.931Z,1.88
2022-10-11T10:25:23.734Z,2.10
2022-10-11T10:27:22.759Z,1.83
2022-10-11T10:29:21.278Z,1.37
2022-10-11T10:31:22.990Z,1.27
2022-10-11T10:33:23.136Z,1.73
2022-10-11T10:35:28.427Z,1.27
2022-10-11T10:37:28.210Z,3.97
2022-10-11T10:39:28.152Z,1.70
2022-10-11T10:41:26.957Z,2.37
2022-10-11T10:43:27.070Z,1.87
2022-10-11T10:45:29.571Z,3.00
2022-10-11T10:47:37.876Z,7.10
2022-10-11T10:49:53.568Z,2.20
2022-10-11T10:51:57.412Z,9.13
2022-10-11T10:54:00.664Z,10.50
2022-10-11T10:56:04.255Z,6.90
2022-10-11T10:58:18.906Z,2.92
2022-10-11T11:00:19.374Z,9.07
2022-10-11T11:02:39.699Z,2.03
2022-10-11T11:04:38.836Z,1.10
2022-10-11T11:06:39.151Z,2.17
2022-10-11T11:08:41.995Z,4.53
2022-10-11T11:10:43.045Z,3.63
2022-10-11T11:12:45.919Z,1.07
2022-10-11T11:14:50.762Z,0.97
2022-10-11T11:16:51.264Z,1.40
2022-10-11T11:18:54.363Z,1.40
2022-10-11T11:21:04.298Z,2.17
2022-10-11T11:23:07.659Z,1.60
2022-10-11T11:25:10.128Z,1.00
2022-10-11T11:27:13.353Z,2.33
2022-10-11T11:29:15.737Z,1.42
2022-10-11T11:31:20.751Z,2.20
2022-10-11T11:33:23.329Z,1.90
2022-10-11T11:35:28.933Z,1.60
2022-10-11T11:37:31.856Z,1.70
2022-10-11T11:39:31.813Z,1.30
2022-10-11T11:41:31.765Z,1.03
2022-10-11T11:43:33.840Z,2.57
2022-10-11T11:45:34.991Z,1.10
2022-10-11T11:47:34.283Z,1.77
2022-10-11T11:49:35.555Z,1.80
2022-10-11T11:51:35.009Z,1.43
2022-10-11T11:53:45.030Z,1.63
2022-10-11T11:55:44.731Z,1.00
2022-10-11T11:57:52.234Z,2.57
2022-10-11T11:59:54.503Z,6.87
2022-10-11T12:01:56.277Z,2.20
2022-10-11T12:03:55.857Z,7.63
2022-10-11T12:06:12.499Z,31.03
2022-10-11T12:08:26.250Z,31.87
2022-10-11T12:10:30.521Z,6.37
2022-10-11T12:12:30.237Z,2.47
2022-10-11T12:14:35.007Z,1.57
2022-10-11T12:16:33.276Z,6.33
2022-10-11T12:18:32.000Z,4.30
2022-10-11T12:20:41.715Z,11.83
2022-10-11T12:22:53.988Z,3.50
2022-10-11T12:24:55.752Z,3.10
2022-10-11T12:26:58.027Z,1.97
2022-10-11T12:29:03.887Z,1.40
2022-10-11T12:31:05.767Z,5.80
2022-10-11T12:33:07.972Z,3.77
2022-10-11T12:35:24.476Z,11.93
2022-10-11T12:37:40.966Z,2.40
2022-10-11T12:39:48.604Z,1.47
2022-10-11T12:41:53.664Z,1.67
2022-10-11T12:44:20.701Z,1.93
2022-10-11T12:46:48.526Z,1.00
2022-10-11T12:48:51.859Z,1.50
2022-10-11T12:50:55.594Z,1.98
2022-10-11T12:52:58.931Z,1.53
2022-10-11T12:55:02.620Z,1.33
2022-10-11T12:57:13.117Z,2.15
2022-10-11T12:59:16.540Z,0.80
2022-10-11T13:01:18.180Z,1.40
2022-10-11T13:03:32.653Z,1.77
2022-10-11T13:05:33.436Z,1.47
2022-10-11T13:07:32.151Z,1.47
2022-10-11T13:09:31.741Z,1.63
2022-10-11T13:11:31.862Z,1.60
2022-10-11T13:13:31.216Z,1.00
2022-10-11T13:15:30.633Z,1.47
2022-10-11T13:17:37.258Z,1.20
2022-10-11T13:21:42.268Z,1.20
2022-10-11T13:23:40.302Z,1.47
2022-10-11T13:25:38.811Z,1.53
2022-10-11T13:27:38.077Z,1.90
2022-10-11T13:29:37.544Z,1.50
2022-10-11T13:31:37.043Z,2.53
2022-10-11T13:33:37.077Z,2.77
2022-10-11T13:35:36.440Z,0.80
2022-10-11T13:37:41.786Z,1.00
2022-10-11T13:39:39.934Z,2.23
2022-10-11T13:41:38.081Z,1.37
2022-10-11T13:43:37.049Z,1.30
2022-10-11T13:45:37.096Z,1.73
2022-10-11T13:47:36.472Z,1.60
2022-10-11T13:49:39.737Z,2.13
2022-10-11T13:51:38.517Z,1.80
2022-10-11T13:53:36.520Z,1.97
2022-10-11T13:55:35.463Z,2.00
2022-10-11T13:57:35.467Z,2.77
2022-10-11T13:59:33.369Z,1.80
2022-10-11T14:01:37.297Z,1.43
2022-10-11T14:03:41.075Z,2.42
2022-10-11T14:05:41.373Z,1.00
2022-10-11T14:07:40.016Z,1.47
2022-10-11T14:09:39.380Z,2.80
2022-10-11T14:11:38.486Z,1.70
2022-10-11T14:13:37.571Z,2.40
2022-10-11T14:15:36.165Z,1.70
2022-10-11T14:17:39.142Z,2.57
2022-10-11T14:19:38.678Z,2.23
2022-10-11T14:21:48.603Z,1.20
2022-10-11T14:23:46.517Z,1.37
2022-10-11T14:25:44.572Z,1.80
2022-10-11T14:27:42.868Z,1.20
2022-10-11T14:29:55.616Z,1.93
2022-10-11T14:32:04.179Z,6.53
2022-10-11T14:34:02.192Z,6.27
2022-10-11T14:36:01.692Z,13.33
2022-10-11T14:37:59.660Z,12.73
2022-10-11T14:39:57.649Z,3.63
2022-10-11T14:41:55.666Z,4.27
2022-10-11T14:43:56.374Z,1.70
2022-10-11T14:45:54.619Z,2.77
2022-10-11T14:47:52.579Z,3.43
2022-10-11T14:49:50.449Z,2.70
2022-10-11T14:51:50.951Z,1.77
2022-10-11T14:53:49.013Z,2.03
2022-10-11T14:55:46.859Z,2.07
2022-10-11T14:57:44.887Z,2.03
2022-10-11T14:59:42.830Z,2.07
2022-10-11T15:01:40.909Z,1.63
2022-10-11T15:03:38.977Z,2.10
2022-10-11T15:05:37.325Z,2.13
2022-10-11T15:07:36.756Z,8.43
2022-10-11T15:09:34.549Z,8.47
2022-10-11T15:11:32.851Z,2.87
2022-10-11T15:13:30.907Z,3.80
2022-10-11T15:15:30.692Z,2.03
2022-10-11T15:17:28.749Z,1.60
2022-10-11T15:19:26.674Z,2.13
2022-10-11T15:21:25.937Z,1.97
2022-10-11T15:23:25.467Z,1.67
2022-10-11T15:25:23.601Z,1.30
2022-10-11T15:27:25.535Z,2.30
2022-10-11T15:29:24.407Z,2.13
2022-10-11T15:31:22.400Z,6.67
2022-10-11T15:33:20.264Z,2.97
2022-10-11T15:35:18.923Z,2.00
2022-10-11T15:37:16.894Z,2.13
2022-10-11T15:39:23.755Z,2.07
2022-10-11T15:41:21.901Z,1.83
2022-10-11T15:43:24.446Z,1.90
2022-10-11T15:45:23.483Z,2.17
2022-10-11T15:47:21.365Z,1.33
2022-10-11T15:49:19.330Z,1.50
2022-10-11T15:51:17.776Z,1.57
2022-10-11T15:53:16.872Z,2.50
2022-10-11T15:55:16.346Z,2.40
2022-10-11T15:57:14.238Z,1.13
2022-10-11T15:59:12.843Z,2.30
2022-10-11T16:01:13.540Z,1.50
2022-10-11T16:03:12.579Z,1.57
2022-10-11T16:05:10.554Z,1.27
2022-10-11T16:07:08.592Z,1.47
2022-10-11T16:09:06.673Z,2.67
2022-10-11T16:11:06.472Z,1.67
2022-10-11T16:13:04.729Z,1.60
2022-10-11T16:15:02.838Z,2.27
2022-10-11T16:17:03.538Z,4.20
2022-10-11T16:19:01.526Z,38.97
2022-10-11T16:20:59.279Z,8.07
2022-10-11T16:22:57.198Z,4.23
2022-10-11T16:24:55.231Z,2.27
2022-10-11T16:26:54.547Z,1.57
2022-10-11T16:28:52.558Z,1.50
2022-10-11T16:30:50.633Z,1.57
2022-10-11T16:32:48.565Z,1.43
2022-10-11T16:34:46.347Z,1.90
2022-10-11T16:36:45.953Z,2.00
2022-10-11T16:38:43.830Z,2.93
2022-10-11T16:40:42.220Z,1.50
2022-10-11T16:42:41.447Z,0.50
2022-10-11T16:44:39.548Z,1.03
2022-10-11T16:46:37.539Z,1.10
2022-10-11T16:48:35.507Z,1.50
2022-10-11T16:50:39.146Z,1.00
2022-10-11T16:54:35.146Z,1.57
2022-10-11T16:56:38.850Z,2.23
2022-10-11T16:58:39.120Z,1.77
2022-10-11T17:00:37.201Z,1.70
2022-10-11T17:02:35.020Z,11.53
2022-10-11T17:04:33.355Z,2.93
2022-10-11T17:06:31.448Z,14.90
2022-10-11T17:08:29.674Z,16.10
2022-10-11T17:10:39.562Z,5.50
2022-10-11T17:12:38.841Z,3.90
2022-10-11T17:14:38.901Z,4.30
2022-10-11T17:16:36.875Z,2.43
2022-10-11T17:18:34.858Z,4.13
2022-10-11T17:20:32.741Z,1.87
2022-10-11T17:22:30.757Z,2.53
2022-10-11T17:24:28.753Z,1.80
2022-10-11T17:26:27.647Z,1.70
2022-10-11T17:28:26.939Z,1.17
2022-10-11T17:30:26.225Z,0.97
2022-10-11T17:32:24.109Z,1.07
2022-10-11T17:34:22.334Z,0.83
2022-10-11T17:36:21.886Z,2.57
2022-10-11T17:38:20.810Z,1.70
2022-10-11T17:40:19.059Z,0.63
2022-10-11T17:42:16.914Z,1.70
2022-10-11T17:44:17.293Z,2.13
2022-10-11T17:46:17.379Z,1.33
2022-10-11T17:48:15.248Z,1.53
2022-10-11T17:50:13.131Z,1.57
2022-10-11T17:52:11.071Z,1.43
2022-10-11T17:54:12.719Z,1.13
2022-10-11T17:56:14.019Z,1.63
2022-10-11T17:58:12.697Z,1.47
2022-10-11T18:00:11.475Z,2.20
2022-10-11T18:02:11.762Z,1.50
2022-10-11T18:04:16.473Z,1.57
2022-10-11T18:06:14.936Z,1.77
2022-10-11T18:08:13.048Z,2.10
2022-10-11T18:10:11.037Z,2.37
2022-10-11T18:12:08.973Z,2.07
2022-10-11T18:14:07.000Z,1.40
2022-10-11T18:16:05.057Z,2.67
2022-10-11T18:18:07.163Z,1.97
2022-10-11T18:20:05.707Z,1.58
2022-10-11T18:22:07.081Z,1.05
2022-10-11T18:24:07.781Z,1.50
2022-10-11T18:26:09.798Z,1.63
2022-10-11T18:28:07.990Z,4.23
2022-10-11T18:30:06.905Z,65.85
2022-10-11T18:32:05.337Z,87.53
2022-10-11T18:34:05.196Z,76.78
2022-10-11T18:36:03.233Z,56.67
2022-10-11T18:38:01.267Z,32.57
2022-10-11T18:39:59.365Z,7.77
2022-10-11T18:41:57.312Z,6.00
2022-10-11T18:43:56.451Z,28.47
2022-10-11T18:46:03.040Z,32.47
2022-10-11T18:48:01.010Z,25.33
2022-10-11T18:50:00.234Z,14.35
2022-10-11T18:51:58.499Z,12.25
2022-10-11T18:53:58.458Z,5.87
2022-10-11T18:55:58.535Z,3.20
2022-10-11T18:57:56.560Z,2.97
2022-10-11T18:59:54.387Z,3.07
2022-10-11T19:01:52.747Z,4.90
2022-10-11T19:03:56.511Z,3.10
2022-10-11T19:05:55.897Z,3.28
2022-10-11T19:07:53.820Z,3.53
2022-10-11T19:09:51.712Z,2.77
2022-10-11T19:11:50.100Z,2.38
2022-10-11T19:13:48.421Z,3.75
2022-10-11T19:15:46.743Z,2.40
2022-10-11T19:17:44.746Z,3.13
2022-10-11T19:19:42.669Z,2.65
2022-10-11T19:21:45.099Z,3.42
2022-10-11T19:23:55.457Z,3.00
2022-10-11T19:25:57.726Z,3.13
2022-10-11T19:28:02.261Z,3.25
2022-10-11T19:30:07.879Z,3.97
2022-10-11T19:32:20.759Z,3.25
2022-10-11T19:34:20.080Z,3.95
2022-10-11T19:36:21.744Z,3.38
2022-10-11T19:40:24.033Z,3.60
2022-10-11T19:42:22.180Z,3.60
2022-10-11T19:44:20.400Z,3.42
2022-10-11T19:46:37.951Z,3.63
2022-10-11T19:48:39.140Z,3.58
2022-10-11T19:50:37.028Z,24.55
2022-10-11T19:52:34.931Z,35.78
2022-10-11T19:54:34.453Z,32.15
2022-10-11T19:56:33.212Z,27.63
2022-10-11T19:58:31.180Z,30.20
2022-10-11T20:00:29.230Z,9.60
2022-10-11T20:02:27.043Z,4.55
2022-10-11T20:04:51.925Z,11.82
2022-10-11T20:06:43.562Z,4.03
2022-10-11T20:08:41.320Z,3.95
2022-10-11T20:10:40.711Z,5.15
2022-10-11T20:12:42.353Z,3.85
2022-10-11T20:14:43.116Z,4.50
2022-10-11T20:16:42.327Z,4.43
2022-10-11T20:18:40.162Z,3.63
2022-10-11T20:20:38.284Z,3.67
2022-10-11T20:22:36.214Z,4.28
2022-10-11T20:24:34.700Z,3.90
2022-10-11T20:26:34.532Z,4.40
2022-10-11T20:28:33.404Z,3.45
2022-10-11T20:30:31.247Z,4.32
2022-10-11T20:32:29.358Z,4.88
2022-10-11T20:34:28.291Z,5.63
2022-10-11T20:36:27.446Z,34.15
2022-10-11T20:38:25.384Z,14.48
2022-10-11T20:40:23.325Z,6.10
2022-10-11T20:42:25.290Z,10.75
2022-10-11T20:46:23.771Z,10.30
2022-10-11T20:48:21.783Z,6.20
2022-10-11T20:50:23.068Z,6.13
2022-10-11T20:52:21.284Z,3.72
2022-10-11T20:54:19.321Z,4.07
2022-10-11T20:56:18.484Z,3.78
2022-10-11T20:58:18.005Z,3.65
2022-10-11T21:00:16.513Z,3.45
2022-10-11T21:02:18.813Z,20.63
2022-10-11T21:04:18.887Z,21.63
2022-10-11T21:06:16.931Z,20.42
2022-10-11T21:08:15.153Z,11.35
2022-10-11T21:10:13.186Z,16.92
2022-10-11T21:12:11.033Z,15.68
2022-10-11T21:14:10.334Z,48.17
2022-10-11T21:16:10.984Z,28.90
2022-10-11T21:18:08.999Z,121.03
2022-10-11T21:20:10.314Z,19.70
2022-10-11T21:22:08.350Z,6.72
2022-10-11T21:24:06.581Z,5.43
2022-10-11T21:26:04.569Z,8.32
2022-10-11T21:28:02.390Z,8.20
2022-10-11T21:30:01.733Z,17.77
2022-10-11T21:31:59.809Z,29.33
2022-10-11T21:33:57.666Z,6.97
2022-10-11T21:35:55.680Z,3.42
2022-10-11T21:37:55.159Z,3.38
2022-10-11T21:39:53.037Z,5.38
2022-10-11T21:41:51.113Z,3.58
2022-10-11T21:43:49.171Z,3.88
2022-10-11T21:45:48.475Z,3.28
2022-10-11T21:47:46.598Z,5.25
2022-10-11T21:49:44.479Z,4.07
2022-10-11T21:51:42.469Z,3.80
2022-10-11T21:53:40.350Z,5.05
2022-10-11T21:55:38.275Z,4.20
2022-10-11T21:57:36.252Z,4.50
2022-10-11T21:59:34.232Z,3.13
2022-10-11T22:01:33.666Z,3.75
2022-10-11T22:03:31.892Z,4.20
2022-10-11T22:05:29.763Z,3.40
2022-10-11T22:07:27.771Z,4.90
2022-10-11T22:09:25.930Z,3.35
2022-10-11T22:11:23.816Z,4.18
2022-10-11T22:13:21.906Z,4.75
2022-10-11T22:15:19.964Z,3.85
2022-10-11T22:17:19.099Z,3.78
2022-10-11T22:19:16.953Z,4.20
2022-10-11T22:21:15.605Z,3.55
2022-10-11T22:23:13.510Z,4.03
2022-10-11T22:25:11.379Z,4.80
2022-10-11T22:27:09.347Z,5.45
2022-10-11T22:29:07.402Z,4.32
2022-10-11T22:31:06.019Z,4.07
2022-10-11T22:33:05.475Z,5.20
2022-10-11T22:35:04.250Z,4.03
2022-10-11T22:37:02.077Z,2.85
2022-10-11T22:39:00.132Z,4.20
2022-10-11T22:40:59.176Z,4.60
2022-10-11T22:42:57.049Z,3.85
2022-10-11T22:44:55.016Z,3.55
2022-10-11T22:46:52.809Z,4.60
2022-10-11T22:48:52.141Z,3.65
2022-10-11T22:50:50.033Z,4.80
2022-10-11T22:52:47.898Z,4.32
2022-10-11T22:54:45.894Z,5.28
2022-10-11T22:56:44.041Z,5.03
2022-10-11T22:58:41.999Z,3.47
2022-10-11T23:00:39.894Z,4.20
2022-10-11T23:02:37.639Z,3.22
2022-10-11T23:04:37.008Z,4.30
2022-10-11T23:06:35.110Z,5.22
2022-10-11T23:08:33.232Z,4.18
2022-10-11T23:10:31.198Z,4.68
2022-10-11T23:12:29.296Z,3.35
2022-10-11T23:14:27.063Z,4.15
2022-10-11T23:16:24.959Z,3.60
2022-10-11T23:18:22.795Z,3.08
2022-10-11T23:20:22.164Z,3.65
2022-10-11T23:22:20.291Z,3.83
2022-10-11T23:24:18.285Z,4.32
2022-10-11T23:26:16.768Z,3.50
2022-10-11T23:28:14.797Z,3.67
2022-10-11T23:30:13.800Z,3.78
2022-10-11T23:32:11.973Z,2.85
2022-10-11T23:34:09.773Z,4.70
2022-10-11T23:36:14.272Z,3.33
2022-10-11T23:38:12.277Z,3.50
2022-10-11T23:40:10.472Z,4.55
2022-10-11T23:42:08.505Z,3.90
2022-10-11T23:44:06.460Z,4.63
2022-10-11T23:46:04.461Z,4.25
2022-10-11T23:48:02.251Z,4.10
2022-10-11T23:50:00.299Z,3.65
2022-10-11T23:51:59.588Z,3.10
2022-10-11T23:53:57.550Z,3.78
2022-10-11T23:55:55.592Z,3.55
2022-10-11T23:57:53.520Z,3.72
2022-10-11T23:59:51.301Z,3.65
